createdAt,value
2024-04-15T00:02:01.777Z,6.00
2024-04-15T00:05:06.189Z,4.40
2024-04-15T00:08:10.053Z,4.80
2024-04-15T00:11:14.809Z,4.20
2024-04-15T00:14:18.645Z,3.92
2024-04-15T00:17:23.311Z,4.82
2024-04-15T00:20:32.124Z,4.43
2024-04-15T00:23:36.069Z,5.00
2024-04-15T00:26:39.852Z,5.05
2024-04-15T00:29:43.930Z,5.15
2024-04-15T00:32:47.721Z,19.02
2024-04-15T00:35:52.177Z,17.70
2024-04-15T00:38:56.064Z,7.10
2024-04-15T00:42:00.419Z,4.60
2024-04-15T00:45:04.165Z,15.30
2024-04-15T00:48:13.714Z,18.33
2024-04-15T00:51:18.780Z,9.40
2024-04-15T00:54:23.395Z,6.00
2024-04-15T00:57:27.714Z,7.30
2024-04-15T01:00:32.821Z,8.65
2024-04-15T01:03:37.161Z,13.45
2024-04-15T01:06:43.034Z,11.60
2024-04-15T01:09:47.021Z,7.25
2024-04-15T01:12:51.390Z,6.93
2024-04-15T01:15:58.868Z,6.35
2024-04-15T01:19:03.691Z,10.75
2024-04-15T01:22:10.626Z,12.93
2024-04-15T01:25:15.323Z,10.13
2024-04-15T01:28:21.905Z,10.60
2024-04-15T01:31:27.378Z,9.93
2024-04-15T01:34:30.586Z,9.23
2024-04-15T01:37:34.637Z,10.50
2024-04-15T01:40:38.719Z,11.02
2024-04-15T01:43:43.230Z,7.18
2024-04-15T01:46:47.023Z,9.27
2024-04-15T01:49:51.200Z,4.05
2024-04-15T01:52:55.331Z,5.80
2024-04-15T01:56:00.253Z,3.13
2024-04-15T01:59:04.071Z,4.03
2024-04-15T02:02:08.239Z,4.38
2024-04-15T02:05:12.310Z,5.45
2024-04-15T02:08:16.405Z,6.43
2024-04-15T02:11:20.363Z,7.72
2024-04-15T02:14:24.514Z,12.65
2024-04-15T02:17:28.502Z,9.88
2024-04-15T02:20:32.678Z,12.68
2024-04-15T02:23:36.854Z,12.90
2024-04-15T02:26:40.643Z,11.88
2024-04-15T02:29:44.154Z,9.23
2024-04-15T02:32:48.542Z,7.65
2024-04-15T02:35:52.274Z,8.23
2024-04-15T02:38:56.362Z,7.60
2024-04-15T02:42:01.085Z,9.50
2024-04-15T02:45:05.076Z,8.85
2024-04-15T02:48:08.972Z,6.80
2024-04-15T02:51:13.376Z,4.55
2024-04-15T02:54:17.202Z,5.13
2024-04-15T02:57:21.439Z,5.25
2024-04-15T03:00:26.368Z,4.30
2024-04-15T03:03:30.713Z,4.07
2024-04-15T03:06:34.125Z,4.25
2024-04-15T03:09:38.575Z,5.37
2024-04-15T03:12:42.483Z,6.43
2024-04-15T03:15:54.840Z,3.10
2024-04-15T03:18:58.063Z,3.95
2024-04-15T03:22:02.444Z,6.68
2024-04-15T03:25:05.898Z,9.73
2024-04-15T03:28:10.605Z,5.22
2024-04-15T03:31:13.799Z,5.13
2024-04-15T03:34:17.618Z,6.38
2024-04-15T03:37:20.640Z,15.95
2024-04-15T03:40:23.955Z,14.13
2024-04-15T03:43:28.149Z,11.60
2024-04-15T03:46:32.827Z,10.27
2024-04-15T03:49:36.094Z,6.28
2024-04-15T03:52:40.500Z,4.28
2024-04-15T03:55:52.558Z,3.63
2024-04-15T03:58:56.809Z,3.58
2024-04-15T04:02:00.764Z,4.00
2024-04-15T04:05:08.991Z,3.42
2024-04-15T04:08:14.616Z,4.38
2024-04-15T04:11:18.922Z,6.07
2024-04-15T04:14:22.413Z,3.63
2024-04-15T04:17:26.762Z,3.75
2024-04-15T04:20:32.059Z,105.35
2024-04-15T04:23:36.240Z,4.20
2024-04-15T04:26:39.943Z,4.80
2024-04-15T04:29:44.244Z,5.43
2024-04-15T04:32:48.325Z,5.50
2024-04-15T04:35:52.480Z,7.03
2024-04-15T04:38:56.291Z,6.00
2024-04-15T04:42:00.230Z,8.37
2024-04-15T04:45:04.109Z,7.57
2024-04-15T04:48:09.137Z,5.55
2024-04-15T04:51:13.263Z,3.67
2024-04-15T04:54:18.027Z,2.42
2024-04-15T04:57:22.104Z,4.93
2024-04-15T05:00:26.220Z,3.85
2024-04-15T05:03:30.378Z,4.05
2024-04-15T05:06:34.666Z,3.78
2024-04-15T05:09:39.337Z,2.22
2024-04-15T05:12:43.474Z,4.17
2024-04-15T05:15:46.657Z,5.25
2024-04-15T05:18:57.300Z,7.25
2024-04-15T05:22:00.588Z,6.30
2024-04-15T05:25:04.332Z,5.40
2024-04-15T05:28:08.038Z,9.07
2024-04-15T05:31:12.777Z,22.92
2024-04-15T05:34:16.712Z,9.52
2024-04-15T05:37:23.954Z,4.53
2024-04-15T05:40:28.033Z,3.65
2024-04-15T05:43:32.267Z,4.53
2024-04-15T05:46:39.028Z,4.90
2024-04-15T05:49:42.809Z,3.38
2024-04-15T05:52:46.287Z,4.43
2024-04-15T05:55:50.370Z,4.85
2024-04-15T05:58:53.678Z,8.13
2024-04-15T06:01:58.101Z,5.18
2024-04-15T06:05:01.707Z,3.08
2024-04-15T06:08:09.539Z,6.65
2024-04-15T06:11:14.951Z,5.47
2024-04-15T06:14:18.114Z,4.73
2024-04-15T06:17:21.962Z,6.63
2024-04-15T06:20:25.176Z,4.15
2024-04-15T06:23:30.063Z,7.05
2024-04-15T06:26:34.269Z,2.95
2024-04-15T06:29:39.018Z,4.80
2024-04-15T06:32:43.108Z,4.18
2024-04-15T06:35:48.221Z,4.70
2024-04-15T06:38:52.373Z,2.67
2024-04-15T06:41:56.409Z,3.28
2024-04-15T06:45:00.614Z,3.17
2024-04-15T06:48:05.984Z,2.75
2024-04-15T06:51:10.085Z,4.68
2024-04-15T06:54:13.989Z,2.88
2024-04-15T06:57:18.610Z,4.07
2024-04-15T07:00:21.809Z,15.33
2024-04-15T07:03:26.206Z,9.02
2024-04-15T07:06:30.085Z,5.13
2024-04-15T07:09:34.272Z,10.70
2024-04-15T07:12:39.206Z,17.27
2024-04-15T07:15:43.840Z,28.00
2024-04-15T07:18:48.838Z,21.00
2024-04-15T07:21:53.293Z,8.60
2024-04-15T07:24:56.734Z,4.90
2024-04-15T07:28:01.471Z,5.18
2024-04-15T07:31:09.849Z,6.57
2024-04-15T07:34:14.718Z,5.35
2024-04-15T07:37:18.796Z,5.93
2024-04-15T07:40:25.875Z,6.68
2024-04-15T07:43:32.646Z,5.95
2024-04-15T07:46:36.750Z,4.43
2024-04-15T07:49:44.410Z,5.85
2024-04-15T07:52:49.722Z,4.05
2024-04-15T07:55:55.191Z,3.92
2024-04-15T07:58:59.443Z,5.07
2024-04-15T08:02:06.015Z,9.10
2024-04-15T08:05:10.489Z,6.68
2024-04-15T08:08:15.595Z,6.18
2024-04-15T08:11:23.418Z,6.60
2024-04-15T08:14:29.776Z,5.20
2024-04-15T08:17:34.188Z,7.77
2024-04-15T08:20:39.173Z,6.93
2024-04-15T08:23:43.467Z,4.80
2024-04-15T08:26:48.737Z,5.90
2024-04-15T08:29:56.267Z,6.63
2024-04-15T08:33:05.915Z,4.63
2024-04-15T08:36:12.089Z,6.25
2024-04-15T08:39:16.422Z,4.93
2024-04-15T08:42:48.692Z,5.63
2024-04-15T08:46:05.284Z,10.50
2024-04-15T08:49:09.820Z,6.37
2024-04-15T08:52:18.712Z,10.60
2024-04-15T08:55:28.007Z,7.60
2024-04-15T08:58:33.582Z,3.90
2024-04-15T09:01:47.559Z,9.38
2024-04-15T15:36:56.740Z,28.83
2024-04-15T15:40:00.852Z,26.25
2024-04-15T15:43:04.430Z,22.53
2024-04-15T15:46:11.633Z,34.88
2024-04-15T15:49:16.906Z,32.60
2024-04-15T15:52:21.240Z,68.95
2024-04-15T15:55:26.158Z,68.25
2024-04-15T15:58:29.679Z,100.60
2024-04-15T16:01:33.409Z,78.50
2024-04-15T16:04:37.169Z,44.88
2024-04-15T16:07:41.025Z,31.40
2024-04-15T16:10:45.246Z,46.45
2024-04-15T16:13:48.551Z,22.60
2024-04-15T16:16:54.728Z,19.98
2024-04-15T16:19:59.255Z,17.48
2024-04-15T16:23:03.413Z,24.35
2024-04-15T16:26:07.832Z,27.88
2024-04-15T16:29:13.437Z,26.20
2024-04-15T16:32:19.291Z,30.75
2024-04-15T16:35:22.457Z,43.17
2024-04-15T16:38:26.192Z,100.80
2024-04-15T16:41:30.640Z,67.18
2024-04-15T16:44:35.164Z,37.87
2024-04-15T16:47:39.190Z,37.50
2024-04-15T16:50:43.554Z,58.08
2024-04-15T16:53:47.824Z,53.53
2024-04-15T16:56:52.640Z,47.67
2024-04-15T16:59:56.800Z,30.73
2024-04-15T17:03:01.711Z,25.25
2024-04-15T17:06:06.256Z,16.45
2024-04-15T17:09:11.239Z,27.52
2024-04-15T17:12:15.623Z,18.33
2024-04-15T17:15:21.026Z,19.23
2024-04-15T17:18:27.571Z,17.95
2024-04-15T17:21:32.636Z,17.35
2024-04-15T17:24:36.849Z,19.88
2024-04-15T17:27:43.711Z,27.75
2024-04-15T17:30:47.956Z,24.77
2024-04-15T17:33:51.888Z,44.35
2024-04-15T17:36:55.803Z,60.08
2024-04-15T17:40:00.354Z,53.65
2024-04-15T17:43:04.737Z,55.38
2024-04-15T17:46:10.657Z,43.63
2024-04-15T17:49:14.536Z,36.53
2024-04-15T17:52:19.305Z,47.85
2024-04-15T17:55:23.350Z,46.13
2024-04-15T17:58:28.025Z,63.75
2024-04-15T18:01:33.181Z,56.67
2024-04-15T18:04:38.083Z,73.80
2024-04-15T18:07:42.468Z,48.13
2024-04-15T18:10:47.085Z,37.97
2024-04-15T18:13:52.904Z,31.00
2024-04-15T18:16:58.305Z,31.00
2024-04-15T18:20:02.698Z,25.83
2024-04-15T18:23:06.723Z,25.83
2024-04-15T18:26:13.561Z,25.88
2024-04-15T18:29:18.442Z,28.35
2024-04-15T18:32:22.349Z,24.23
2024-04-15T18:35:27.334Z,30.98
2024-04-15T18:38:31.137Z,29.23
2024-04-15T18:41:36.069Z,27.85
2024-04-15T18:44:41.515Z,22.95
2024-04-15T18:47:46.234Z,23.77
2024-04-15T18:50:50.678Z,24.25
2024-04-15T18:53:54.386Z,28.40
2024-04-15T18:56:58.466Z,28.67
2024-04-15T19:00:02.869Z,26.05
2024-04-15T19:03:07.570Z,28.27
2024-04-15T19:06:12.132Z,27.70
2024-04-15T19:09:16.117Z,20.40
2024-04-15T19:12:21.269Z,22.58
2024-04-15T19:15:25.322Z,23.08
2024-04-15T19:18:30.028Z,22.83
2024-04-15T19:21:33.686Z,32.10
2024-04-15T19:24:38.546Z,28.85
2024-04-15T19:27:42.731Z,20.52
2024-04-15T19:30:47.508Z,30.48
2024-04-15T19:33:51.637Z,35.23
2024-04-15T19:36:56.290Z,38.13
2024-04-15T19:40:00.929Z,29.88
2024-04-15T19:43:06.240Z,25.10
2024-04-15T19:46:10.440Z,23.25
2024-04-15T19:49:15.652Z,34.67
2024-04-15T19:52:19.916Z,30.38
2024-04-15T19:55:24.467Z,21.48
2024-04-15T19:58:29.398Z,24.70
2024-04-15T20:01:33.828Z,25.27
2024-04-15T20:04:37.905Z,25.17
2024-04-15T20:07:43.252Z,29.15
2024-04-15T20:10:47.788Z,21.45
2024-04-15T20:13:52.037Z,26.20
2024-04-15T20:17:01.651Z,19.48
2024-04-15T20:20:13.896Z,22.43
2024-04-15T20:23:18.971Z,22.35
2024-04-15T20:26:23.678Z,21.25
2024-04-15T20:29:27.333Z,20.25
2024-04-15T20:32:31.759Z,25.63
2024-04-15T20:35:35.683Z,20.63
2024-04-15T20:38:41.441Z,20.00
2024-04-15T20:41:45.390Z,19.38
2024-04-15T20:44:49.604Z,23.88
2024-04-15T20:47:53.644Z,23.90
2024-04-15T20:50:57.961Z,32.87
2024-04-15T20:54:03.291Z,21.90
2024-04-15T20:57:07.851Z,22.52
2024-04-15T21:00:12.243Z,19.90
2024-04-15T21:03:16.650Z,16.63
2024-04-15T21:06:23.236Z,12.90
2024-04-15T21:09:29.016Z,30.10
2024-04-15T21:12:33.189Z,30.63
2024-04-15T21:15:37.724Z,26.58
2024-04-15T21:18:41.509Z,35.67
2024-04-15T21:21:45.837Z,31.70
2024-04-15T21:24:50.668Z,36.63
2024-04-15T21:27:57.672Z,30.40
2024-04-15T21:31:01.712Z,25.80
2024-04-15T21:34:06.236Z,25.33
2024-04-15T21:37:10.237Z,27.70
2024-04-15T21:40:14.455Z,36.15
2024-04-15T21:43:18.474Z,27.35
2024-04-15T21:46:22.728Z,24.23
2024-04-15T21:49:26.680Z,31.38
2024-04-15T21:52:31.228Z,26.77
2024-04-15T21:55:35.496Z,33.28
2024-04-15T21:58:44.104Z,24.65
2024-04-15T22:01:47.254Z,29.50
2024-04-15T22:04:59.956Z,37.05
2024-04-15T22:08:06.750Z,26.83
2024-04-15T22:11:11.126Z,37.45
2024-04-15T22:14:15.188Z,34.50
2024-04-15T22:17:19.494Z,29.30
2024-04-15T22:20:23.854Z,36.03
2024-04-15T22:23:28.069Z,42.47
2024-04-15T22:26:31.874Z,40.58
2024-04-15T22:29:36.361Z,37.03
2024-04-15T22:32:40.293Z,46.03
2024-04-15T22:35:44.955Z,56.72
2024-04-15T22:38:48.936Z,50.47
2024-04-15T22:41:52.515Z,48.55
2024-04-15T22:44:56.501Z,46.25
2024-04-15T22:48:00.774Z,56.10
2024-04-15T22:51:04.933Z,50.55
2024-04-15T22:54:10.209Z,59.03
2024-04-15T22:57:14.148Z,60.22
2024-04-15T23:00:21.295Z,73.25
2024-04-15T23:03:26.643Z,74.95
2024-04-15T23:06:31.217Z,91.38
2024-04-15T23:09:35.280Z,77.93
2024-04-15T23:12:39.521Z,73.00
2024-04-15T23:15:43.853Z,66.97
2024-04-15T23:18:49.015Z,52.70
2024-04-15T23:21:52.950Z,32.53
2024-04-15T23:24:58.990Z,20.60
2024-04-15T23:28:04.926Z,18.65
2024-04-15T23:31:09.557Z,23.25
2024-04-15T23:34:14.773Z,23.02
2024-04-15T23:37:18.930Z,16.75
2024-04-15T23:40:22.753Z,14.90
2024-04-15T23:43:27.190Z,19.90
2024-04-15T23:46:50.012Z,20.38
2024-04-15T23:50:12.964Z,22.40
2024-04-15T23:53:35.786Z,20.05
2024-04-15T23:56:58.633Z,24.77
